createdAt,value
2019-03-04T00:01:09.124Z,99463.86
2019-03-04T00:03:38.966Z,99474.56
2019-03-04T00:06:08.725Z,99469.56
2019-03-04T00:08:38.387Z,99470.22
2019-03-04T00:11:08.231Z,99456.64
2019-03-04T00:13:37.961Z,99447.15
2019-03-04T00:16:07.659Z,99448.95
2019-03-04T00:18:37.419Z,99435.88
2019-03-04T00:21:07.411Z,99419.72
2019-03-04T00:23:37.080Z,99406.26
2019-03-04T00:26:06.873Z,99409.58
2019-03-04T00:28:36.583Z,99375.61
2019-03-04T00:31:06.382Z,99362.11
2019-03-04T00:33:36.084Z,99349.42
2019-03-04T00:36:05.955Z,99334.05
2019-03-04T00:38:35.730Z,99344.86
2019-03-04T00:41:05.640Z,99335.83
2019-03-04T00:43:35.392Z,99338.86
2019-03-04T00:46:05.836Z,99340.85
2019-03-04T00:48:35.544Z,99342.40
2019-03-04T00:51:05.706Z,99334.28
2019-03-04T00:53:35.481Z,99321.91
2019-03-04T00:56:05.254Z,99325.36
2019-03-04T00:58:34.964Z,99340.19
2019-03-04T01:01:04.786Z,99331.81
2019-03-04T01:03:34.539Z,99332.13
2019-03-04T01:06:04.365Z,99337.83
2019-03-04T01:08:34.041Z,99329.93
2019-03-04T01:11:03.821Z,99330.03
2019-03-04T01:13:33.474Z,99315.33
2019-03-04T01:16:03.157Z,99320.90
2019-03-04T01:18:33.493Z,99321.11
2019-03-04T01:21:03.316Z,99307.18
2019-03-04T01:23:33.227Z,99296.15
2019-03-04T01:26:02.939Z,99282.46
2019-03-04T01:28:32.576Z,99290.14
2019-03-04T01:31:02.291Z,99290.56
2019-03-04T01:33:32.030Z,99283.87
2019-03-04T01:36:01.700Z,99278.45
2019-03-04T01:38:31.348Z,99281.20
2019-03-04T01:41:01.120Z,99233.95
2019-03-04T01:43:30.879Z,99227.43
2019-03-04T01:46:00.567Z,99208.53
2019-03-04T01:48:30.316Z,99203.25
2019-03-04T01:50:59.978Z,99228.36
2019-03-04T01:53:29.762Z,99226.03
2019-03-04T01:55:59.489Z,99212.75
2019-03-04T01:58:29.201Z,99209.64
2019-03-04T02:00:59.012Z,99237.27
2019-03-04T02:03:28.727Z,99214.64
2019-03-04T02:05:58.464Z,99193.73
2019-03-04T02:08:28.146Z,99178.22
2019-03-04T02:10:57.898Z,99170.98
2019-03-04T02:13:27.706Z,99122.95
2019-03-04T02:15:57.624Z,99053.85
2019-03-04T02:18:27.394Z,99115.86
2019-03-04T02:20:57.580Z,99117.31
2019-03-04T02:23:27.279Z,99126.16
2019-03-04T02:26:09.386Z,99121.16
2019-03-04T02:28:39.091Z,99144.44
2019-03-04T02:31:08.940Z,99108.69
2019-03-04T02:33:38.650Z,99078.27
2019-03-04T02:36:08.289Z,99079.72
2019-03-04T02:38:38.064Z,99086.30
2019-03-04T02:41:07.765Z,99083.42
2019-03-04T02:43:37.408Z,99068.92
2019-03-04T02:46:07.268Z,99049.77
2019-03-04T02:48:37.054Z,99056.25
2019-03-04T02:51:06.989Z,99050.52
2019-03-04T02:53:36.801Z,99036.05
2019-03-04T02:56:06.618Z,99028.62
2019-03-04T02:58:36.334Z,99022.59
2019-03-04T03:01:06.327Z,99014.97
2019-03-04T03:03:36.120Z,98988.52
2019-03-04T03:06:05.949Z,98987.69
2019-03-04T03:08:35.625Z,98970.63
2019-03-04T03:11:05.450Z,98960.80
2019-03-04T03:13:35.101Z,98951.76
2019-03-04T03:16:05.053Z,98938.19
2019-03-04T03:18:34.718Z,98909.25
2019-03-04T03:21:04.526Z,98912.36
2019-03-04T03:23:34.307Z,98875.84
2019-03-04T03:26:04.074Z,98844.52
2019-03-04T03:28:33.780Z,98831.09
2019-03-04T03:31:03.594Z,98824.65
2019-03-04T03:33:33.535Z,98864.88
2019-03-04T03:36:03.260Z,98878.91
2019-03-04T03:38:32.961Z,98866.09
2019-03-04T03:41:02.623Z,98862.66
2019-03-04T03:43:32.352Z,98855.97
2019-03-04T03:46:02.068Z,98857.70
2019-03-04T03:48:31.776Z,98844.25
2019-03-04T03:51:01.425Z,98838.31
2019-03-04T03:53:31.097Z,98821.98
2019-03-04T03:56:01.023Z,98809.35
2019-03-04T03:58:30.776Z,98813.44
2019-03-04T04:01:00.524Z,98840.16
2019-03-04T04:03:30.310Z,98818.67
2019-03-04T04:06:00.020Z,98827.48
2019-03-04T04:08:29.751Z,98792.89
2019-03-04T04:10:59.396Z,98791.28
2019-03-04T04:13:29.089Z,98785.70
2019-03-04T04:15:58.749Z,98768.80
2019-03-04T04:18:29.302Z,98722.69
2019-03-04T04:20:58.959Z,98696.14
2019-03-04T04:23:28.927Z,98736.98
2019-03-04T04:25:58.680Z,98724.94
2019-03-04T04:28:29.654Z,98743.47
2019-03-04T04:30:59.311Z,98725.45
2019-03-04T04:33:29.022Z,98740.45
2019-03-04T04:35:58.719Z,98736.48
2019-03-04T04:38:28.414Z,98722.61
2019-03-04T04:40:58.061Z,98721.70
2019-03-04T04:43:27.779Z,98719.45
2019-03-04T04:45:57.505Z,98726.76
2019-03-04T04:48:27.198Z,98717.00
2019-03-04T04:50:56.892Z,98729.86
2019-03-04T04:53:26.620Z,98710.64
2019-03-04T04:55:56.393Z,98697.05
2019-03-04T04:58:26.161Z,98727.27
2019-03-04T05:00:55.874Z,98705.84
2019-03-04T05:03:25.584Z,98707.74
2019-03-04T05:05:55.341Z,98674.16
2019-03-04T05:08:25.006Z,98677.91
2019-03-04T05:10:54.766Z,98680.74
2019-03-04T05:13:24.693Z,98672.94
2019-03-04T05:15:54.381Z,98652.72
2019-03-04T05:18:24.086Z,98670.73
2019-03-04T05:20:53.768Z,98667.78
2019-03-04T05:23:23.690Z,98656.17
2019-03-04T05:25:53.324Z,98655.48
2019-03-04T05:28:23.113Z,98648.03
2019-03-04T05:30:52.933Z,98621.48
2019-03-04T05:33:22.659Z,98612.13
2019-03-04T05:35:52.303Z,98613.89
2019-03-04T05:38:21.984Z,98626.97
2019-03-04T05:40:51.672Z,98616.11
2019-03-04T05:43:21.377Z,98600.06
2019-03-04T05:45:51.047Z,98596.73
2019-03-04T05:48:20.744Z,98588.38
2019-03-04T05:50:50.504Z,98579.94
2019-03-04T05:53:20.213Z,98587.57
2019-03-04T05:55:49.885Z,98586.45
2019-03-04T05:58:19.574Z,98592.45
2019-03-04T06:00:49.254Z,98630.28
2019-03-04T06:03:23.306Z,98730.55
2019-03-04T06:05:52.977Z,98723.66
2019-03-04T06:08:22.676Z,98732.28
2019-03-04T06:10:52.460Z,98743.94
2019-03-04T06:13:22.192Z,98757.56
2019-03-04T06:15:51.864Z,98760.43
2019-03-04T06:18:21.569Z,98770.15
2019-03-04T06:20:51.240Z,98781.66
2019-03-04T06:23:20.916Z,98785.96
2019-03-04T06:25:51.593Z,98783.75
2019-03-04T06:28:21.366Z,98769.61
2019-03-04T06:30:51.091Z,98768.81
2019-03-04T06:33:21.181Z,98751.33
2019-03-04T06:35:50.971Z,98724.62
2019-03-04T06:38:20.719Z,98712.59
2019-03-04T06:40:50.433Z,98669.55
2019-03-04T06:43:20.157Z,98688.53
2019-03-04T06:45:49.840Z,98679.47
2019-03-04T06:48:19.495Z,98686.75
2019-03-04T06:50:55.364Z,98683.41
2019-03-04T06:53:44.602Z,98662.38
2019-03-04T06:56:40.043Z,98687.09
2019-03-04T06:59:32.488Z,98678.99
2019-03-04T07:02:12.319Z,98695.28
2019-03-04T07:05:07.786Z,98676.58
2019-03-04T07:07:37.487Z,98679.45
2019-03-04T07:10:09.786Z,98699.69
2019-03-04T07:12:39.448Z,98690.39
2019-03-04T07:15:10.526Z,98705.25
2019-03-04T07:17:40.210Z,98694.62
2019-03-04T07:20:16.484Z,98697.70
2019-03-04T07:22:48.397Z,98696.31
2019-03-04T07:25:17.538Z,98707.83
2019-03-04T07:27:47.276Z,98717.04
2019-03-04T07:30:19.260Z,98721.00
2019-03-04T07:32:50.194Z,98723.02
2019-03-04T07:35:19.953Z,98722.39
2019-03-04T07:38:06.181Z,98719.84
2019-03-04T07:40:35.863Z,98720.52
2019-03-04T07:43:05.633Z,98711.86
2019-03-04T07:45:35.519Z,98707.77
2019-03-04T07:48:05.340Z,98722.30
2019-03-04T07:50:35.109Z,98714.20
2019-03-04T07:53:04.862Z,98727.16
2019-03-04T07:55:34.650Z,98723.97
2019-03-04T07:58:04.633Z,98754.67
2019-03-04T08:00:34.712Z,98750.80
2019-03-04T08:03:04.441Z,98743.48
2019-03-04T08:05:34.182Z,98744.04
2019-03-04T08:08:12.845Z,98738.84
2019-03-04T08:11:01.184Z,98748.58
2019-03-04T08:13:47.413Z,98758.47
2019-03-04T08:16:17.097Z,98755.24
2019-03-04T08:18:46.852Z,98756.03
2019-03-04T08:21:16.553Z,98752.16
2019-03-04T08:23:46.531Z,98756.36
2019-03-04T08:26:16.429Z,98749.48
2019-03-04T08:28:46.189Z,98760.25
2019-03-04T08:31:16.245Z,98757.89
2019-03-04T08:33:45.906Z,98750.70
2019-03-04T08:36:15.624Z,98742.67
2019-03-04T08:38:45.329Z,98757.63
2019-03-04T08:41:15.166Z,98718.23
2019-03-04T08:43:44.845Z,98746.79
2019-03-04T08:46:14.574Z,98752.84
2019-03-04T08:48:44.455Z,98746.53
2019-03-04T08:51:14.168Z,98744.30
2019-03-04T08:53:44.005Z,98725.80
2019-03-04T08:56:13.735Z,98735.37
2019-03-04T08:58:43.526Z,98741.36
2019-03-04T09:01:13.332Z,98741.66
2019-03-04T09:03:42.971Z,98740.83
2019-03-04T09:06:12.820Z,98745.23
2019-03-04T09:08:42.501Z,98734.20
2019-03-04T09:11:12.412Z,98745.67
2019-03-04T09:13:42.325Z,98743.34
2019-03-04T09:16:12.130Z,98745.63
2019-03-04T09:18:42.197Z,98754.66
2019-03-04T09:21:11.974Z,98732.19
2019-03-04T09:23:41.752Z,98751.66
2019-03-04T09:26:12.984Z,98749.42
2019-03-04T09:28:42.886Z,98737.92
2019-03-04T09:31:12.762Z,98766.66
2019-03-04T09:33:42.435Z,98761.47
2019-03-04T09:36:12.254Z,98778.83
2019-03-04T09:38:41.957Z,98791.76
2019-03-04T09:41:11.811Z,98780.51
2019-03-04T09:43:41.593Z,98796.95
2019-03-04T09:46:11.270Z,98786.42
2019-03-04T09:48:41.150Z,98784.44
2019-03-04T09:51:10.892Z,98789.52
2019-03-04T09:53:40.583Z,98804.06
2019-03-04T09:56:10.307Z,98775.87
2019-03-04T09:58:40.090Z,98796.05
2019-03-04T10:01:19.847Z,98794.51
2019-03-04T10:04:21.482Z,98782.65
2019-03-04T10:07:04.586Z,98763.02
2019-03-04T10:09:58.639Z,98773.20
2019-03-04T10:12:44.787Z,98751.82
2019-03-04T10:15:20.523Z,98774.89
2019-03-04T10:18:14.733Z,98769.89
2019-03-04T10:21:36.086Z,98757.23
2019-03-04T10:24:51.314Z,98747.77
2019-03-04T10:27:35.303Z,98749.11
2019-03-04T10:30:33.999Z,98743.20
2019-03-04T10:33:17.213Z,98737.13
2019-03-04T10:36:03.120Z,98751.52
2019-03-04T10:38:43.604Z,98744.06
2019-03-04T10:41:44.169Z,98749.66
2019-03-04T10:44:37.839Z,98747.99
2019-03-04T10:47:07.423Z,98723.32
2019-03-04T10:49:37.495Z,98727.66
2019-03-04T10:52:07.308Z,98742.97
2019-03-04T10:54:37.109Z,98741.01
2019-03-04T10:57:06.910Z,98759.45
2019-03-04T10:59:36.688Z,98788.52
2019-03-04T11:02:06.551Z,98845.94
2019-03-04T11:04:36.326Z,98861.23
2019-03-04T11:07:06.174Z,98874.54
2019-03-04T11:09:35.828Z,98885.63
2019-03-04T11:12:05.655Z,98896.86
2019-03-04T11:14:35.777Z,98891.55
2019-03-04T11:17:05.443Z,98876.24
2019-03-04T11:19:35.227Z,98887.17
2019-03-04T11:22:05.147Z,98900.23
2019-03-04T11:24:35.003Z,98910.98
2019-03-04T11:27:04.897Z,98920.45
2019-03-04T11:29:34.616Z,98923.73
2019-03-04T11:32:05.433Z,98920.44
2019-03-04T11:34:35.135Z,98943.41
2019-03-04T11:37:05.170Z,98957.61
2019-03-04T11:39:45.540Z,98969.02
2019-03-04T11:42:15.259Z,98962.36
2019-03-04T11:44:45.067Z,98962.48
2019-03-04T11:47:14.782Z,98959.90
2019-03-04T11:49:44.549Z,98960.51
2019-03-04T11:52:14.725Z,98957.56
2019-03-04T11:54:44.581Z,98976.81
2019-03-04T11:57:14.332Z,98982.17
2019-03-04T11:59:44.249Z,98989.04
2019-03-04T12:02:15.630Z,98985.36
2019-03-04T12:04:45.394Z,98991.61
2019-03-04T12:07:15.195Z,99001.98
2019-03-04T12:09:44.977Z,99003.52
2019-03-04T12:12:14.701Z,99006.04
2019-03-04T12:14:44.551Z,99018.11
2019-03-04T12:17:14.197Z,99032.59
2019-03-04T12:19:43.973Z,99035.55
2019-03-04T12:22:13.673Z,99052.14
2019-03-04T12:24:43.325Z,99064.73
2019-03-04T12:27:13.023Z,99073.01
2019-03-04T12:29:42.701Z,99076.74
2019-03-04T12:32:14.025Z,99084.94
2019-03-04T12:34:43.769Z,99089.81
2019-03-04T12:37:13.495Z,99094.19
2019-03-04T12:39:43.211Z,99090.90
2019-03-04T12:42:13.572Z,99098.77
2019-03-04T12:44:43.245Z,99098.62
2019-03-04T12:47:13.065Z,99091.86
2019-03-04T12:49:42.837Z,99103.81
2019-03-04T12:52:12.599Z,99106.89
2019-03-04T12:54:42.243Z,99109.59
2019-03-04T12:57:12.399Z,99126.14
2019-03-04T12:59:42.113Z,99125.36
2019-03-04T13:02:11.980Z,99134.36
2019-03-04T13:04:41.816Z,99136.34
2019-03-04T13:07:11.575Z,99149.09
2019-03-04T13:09:41.580Z,99145.09
2019-03-04T13:12:11.440Z,99160.71
2019-03-04T13:14:41.149Z,99158.61
2019-03-04T13:17:10.981Z,99161.37
2019-03-04T13:19:40.790Z,99174.88
2019-03-04T13:22:10.577Z,99175.20
2019-03-04T13:24:40.349Z,99170.58
2019-03-04T13:27:10.091Z,99179.66
2019-03-04T13:29:39.872Z,99185.34
2019-03-04T13:32:09.616Z,99192.72
2019-03-04T13:34:39.344Z,99198.17
2019-03-04T13:37:09.200Z,99202.06
2019-03-04T13:39:38.868Z,99201.70
2019-03-04T13:42:08.704Z,99204.97
2019-03-04T13:44:38.466Z,99214.33
2019-03-04T13:47:08.321Z,99215.11
2019-03-04T13:49:38.159Z,99227.62
2019-03-04T13:52:08.117Z,99222.03
2019-03-04T13:54:37.835Z,99225.55
2019-03-04T13:57:07.758Z,99229.59
2019-03-04T13:59:37.509Z,99218.83
2019-03-04T14:02:07.338Z,99231.41
2019-03-04T14:04:36.992Z,99227.94
2019-03-04T14:07:06.819Z,99248.28
2019-03-04T14:09:36.494Z,99247.09
2019-03-04T14:12:06.708Z,99259.59
2019-03-04T14:14:36.509Z,99261.73
2019-03-04T14:17:06.252Z,99261.72
2019-03-04T14:19:35.963Z,99270.37
2019-03-04T14:22:06.090Z,99278.95
2019-03-04T14:24:35.857Z,99292.98
2019-03-04T14:27:05.669Z,99292.54
2019-03-04T14:29:35.432Z,99300.00
2019-03-04T14:32:07.110Z,99299.76
2019-03-04T14:34:36.680Z,99305.80
2019-03-04T14:37:06.355Z,99314.47
2019-03-04T14:39:36.031Z,99316.30
2019-03-04T14:42:05.761Z,99338.81
2019-03-04T14:44:35.843Z,99316.81
2019-03-04T14:47:05.973Z,99343.20
2019-03-04T14:49:44.485Z,99352.17
2019-03-04T14:52:07.224Z,99344.93
2019-03-04T14:54:36.929Z,99358.47
2019-03-04T14:57:06.744Z,99362.75
2019-03-04T14:59:36.501Z,99368.63
2019-03-04T15:02:06.380Z,99372.69
2019-03-04T15:04:36.158Z,99377.02
2019-03-04T15:07:05.970Z,99371.72
2019-03-04T15:09:35.745Z,99390.59
2019-03-04T15:12:05.554Z,99394.22
2019-03-04T15:14:35.212Z,99395.30
2019-03-04T15:17:05.135Z,99401.92
2019-03-04T15:19:34.832Z,99403.90
2019-03-04T15:22:04.741Z,99416.48
2019-03-04T15:24:34.521Z,99414.50
2019-03-04T15:27:04.254Z,99423.68
2019-03-04T15:29:34.111Z,99421.63
2019-03-04T15:32:03.920Z,99437.30
2019-03-04T15:34:33.768Z,99439.42
2019-03-04T15:37:03.576Z,99442.83
2019-03-04T15:39:33.360Z,99453.34
2019-03-04T15:42:03.191Z,99457.67
2019-03-04T15:44:32.915Z,99460.47
2019-03-04T15:47:02.884Z,99470.13
2019-03-04T15:49:32.597Z,99467.19
2019-03-04T15:52:02.277Z,99481.42
2019-03-04T15:54:31.991Z,99489.34
2019-03-04T15:57:03.813Z,99502.73
2019-03-04T15:59:33.704Z,99509.06
2019-03-04T16:02:07.798Z,99500.00
2019-03-04T16:04:37.844Z,99511.43
2019-03-04T16:07:09.602Z,99514.63
2019-03-04T16:09:39.796Z,99516.27
2019-03-04T16:12:11.358Z,99515.27
2019-03-04T16:14:41.242Z,99518.36
2019-03-04T16:17:11.122Z,99521.81
2019-03-04T16:19:40.915Z,99525.02
2019-03-04T16:22:10.924Z,99527.69
2019-03-04T16:24:40.675Z,99524.56
2019-03-04T16:27:12.154Z,99530.42
2019-03-04T16:29:42.100Z,99530.23
2019-03-04T16:32:11.891Z,99536.11
2019-03-04T16:55:41.509Z,99583.95
2019-03-04T16:58:11.260Z,99592.90
2019-03-04T17:00:42.252Z,99599.20
2019-03-04T17:03:12.149Z,99603.06
2019-03-04T17:05:41.933Z,99606.70
2019-03-04T17:08:11.806Z,99602.97
2019-03-04T17:11:13.940Z,99608.81
2019-03-04T17:13:43.787Z,99615.41
2019-03-04T17:16:13.534Z,99620.72
2019-03-04T17:18:43.337Z,99621.20
2019-03-04T17:21:13.169Z,99622.52
2019-03-04T17:23:42.855Z,99624.90
2019-03-04T17:26:12.617Z,99634.19
2019-03-04T17:28:42.388Z,99641.17
2019-03-04T17:31:12.234Z,99648.36
2019-03-04T17:33:42.222Z,99661.42
2019-03-04T17:36:12.106Z,99662.60
2019-03-04T17:38:41.927Z,99664.84
2019-03-04T17:41:11.810Z,99672.09
2019-03-04T17:43:41.563Z,99675.58
2019-03-04T17:46:11.323Z,99683.13
2019-03-04T17:48:41.104Z,99689.09
2019-03-04T17:51:10.863Z,99685.78
2019-03-04T17:53:41.142Z,99690.45
2019-03-04T17:56:10.852Z,99692.87
2019-03-04T17:58:40.962Z,99698.07
2019-03-04T18:01:11.167Z,99700.83
2019-03-04T18:03:40.851Z,99702.17
2019-03-04T18:06:10.671Z,99707.13
2019-03-04T18:08:40.459Z,99714.02
2019-03-04T18:11:10.144Z,99704.96
2019-03-04T18:13:39.933Z,99717.97
2019-03-04T18:16:09.689Z,99718.70
2019-03-04T18:18:39.494Z,99724.11
2019-03-04T18:21:09.222Z,99723.81
2019-03-04T18:23:39.009Z,99722.89
2019-03-04T18:26:13.320Z,99718.30
2019-03-04T18:29:03.963Z,99724.45
2019-03-04T18:31:59.393Z,99719.48
2019-03-04T18:34:59.439Z,99722.62
2019-03-04T18:38:03.846Z,99732.61
2019-03-04T18:41:02.002Z,99730.09
2019-03-04T18:43:51.474Z,99732.08
2019-03-04T18:46:34.865Z,99729.83
2019-03-04T18:49:04.740Z,99727.91
2019-03-04T18:51:35.233Z,99730.16
2019-03-04T18:54:08.013Z,99732.72
2019-03-04T18:56:37.789Z,99732.61
2019-03-04T18:59:08.810Z,99734.94
2019-03-04T19:01:38.634Z,99729.92
2019-03-04T19:04:08.641Z,99727.64
2019-03-04T19:06:38.287Z,99737.73
2019-03-04T19:09:08.644Z,99736.50
2019-03-04T19:11:38.731Z,99738.66
2019-03-04T19:14:08.799Z,99746.42
2019-03-04T19:16:38.502Z,99745.49
2019-03-04T19:19:08.220Z,99750.00
2019-03-04T19:21:37.880Z,99742.60
2019-03-04T19:24:07.665Z,99740.18
2019-03-04T19:26:37.435Z,99745.29
2019-03-04T19:29:07.311Z,99749.07
2019-03-04T19:31:37.151Z,99741.47
2019-03-04T19:34:07.047Z,99745.98
2019-03-04T19:36:36.876Z,99744.36
2019-03-04T19:39:08.717Z,99741.00
2019-03-04T19:41:38.691Z,99746.09
2019-03-04T19:44:08.455Z,99748.84
2019-03-04T19:46:38.208Z,99745.26
2019-03-04T19:49:08.125Z,99743.47
2019-03-04T19:51:37.916Z,99749.73
2019-03-04T19:54:07.689Z,99751.48
2019-03-04T19:56:37.466Z,99744.86
2019-03-04T19:59:07.310Z,99743.63
2019-03-04T20:01:37.082Z,99742.03
2019-03-04T20:04:07.032Z,99749.23
2019-03-04T20:06:37.804Z,99752.41
2019-03-04T20:09:09.975Z,99745.28
2019-03-04T20:11:39.897Z,99761.52
2019-03-04T20:14:09.940Z,99759.16
2019-03-04T20:16:39.717Z,99761.84
2019-03-04T20:19:09.579Z,99760.52
2019-03-04T20:21:39.282Z,99768.22
2019-03-04T20:24:09.049Z,99768.95
2019-03-04T20:26:38.690Z,99772.87
2019-03-04T20:29:08.515Z,99767.02
2019-03-04T20:31:38.243Z,99770.11
2019-03-04T20:34:08.080Z,99764.60
2019-03-04T20:36:37.795Z,99769.73
2019-03-04T20:39:09.800Z,99762.73
2019-03-04T20:41:40.643Z,99768.69
2019-03-04T20:44:11.440Z,99769.08
2019-03-04T20:46:41.152Z,99772.53
2019-03-04T20:49:11.223Z,99768.65
2019-03-04T20:51:41.041Z,99775.78
2019-03-04T20:54:10.842Z,99783.02
2019-03-04T20:56:40.647Z,99786.41
2019-03-04T20:59:10.460Z,99792.94
2019-03-04T21:01:40.716Z,99790.81
2019-03-04T21:04:10.706Z,99808.23
2019-03-04T21:06:40.543Z,99814.91
2019-03-04T21:09:13.368Z,99816.77
2019-03-04T21:11:43.206Z,99849.66
2019-03-04T21:14:13.049Z,99843.67
2019-03-04T21:16:42.829Z,99868.33
2019-03-04T21:19:12.717Z,99850.56
2019-03-04T21:21:42.917Z,99854.55
2019-03-04T21:24:12.860Z,99850.70
2019-03-04T21:26:42.992Z,99853.41
2019-03-04T21:29:30.174Z,99855.48
2019-03-04T21:32:14.264Z,99863.00
2019-03-04T21:35:20.291Z,99863.58
2019-03-04T21:37:50.350Z,99865.42
2019-03-04T21:40:33.446Z,99864.64
2019-03-04T21:43:07.708Z,99869.41
2019-03-04T21:46:08.991Z,99874.47
2019-03-04T21:48:50.127Z,99873.83
2019-03-04T21:51:38.505Z,99877.16
2019-03-04T21:54:09.886Z,99878.98
2019-03-04T21:57:02.051Z,99888.27
2019-03-04T21:59:31.763Z,99886.64
2019-03-04T22:02:12.020Z,99884.50
2019-03-04T22:04:42.049Z,99888.78
2019-03-04T22:07:13.807Z,99889.30
2019-03-04T22:09:43.687Z,99893.78
2019-03-04T22:12:14.969Z,99896.60
2019-03-04T22:14:44.747Z,99899.83
2019-03-04T22:17:14.561Z,99895.52
2019-03-04T22:19:44.373Z,99901.03
2019-03-04T22:22:14.099Z,99894.05
2019-03-04T22:24:43.868Z,99897.80
2019-03-04T22:27:13.722Z,99909.95
2019-03-04T22:29:43.511Z,99910.23
2019-03-04T22:32:13.206Z,99919.57
2019-03-04T22:34:42.969Z,99909.78
2019-03-04T22:37:12.788Z,99918.69
2019-03-04T22:39:42.564Z,99922.59
2019-03-04T22:42:12.228Z,99922.66
2019-03-04T22:44:41.989Z,99924.73
2019-03-04T22:47:11.777Z,99927.08
2019-03-04T22:49:41.462Z,99926.64
2019-03-04T22:52:11.269Z,99932.76
2019-03-04T22:54:41.101Z,99927.91
2019-03-04T22:57:11.032Z,99938.47
2019-03-04T22:59:40.740Z,99933.41
2019-03-04T23:02:10.949Z,99931.28
2019-03-04T23:04:41.350Z,99938.69
2019-03-04T23:07:11.532Z,99946.70
2019-03-04T23:09:48.778Z,99942.97
2019-03-04T23:12:23.336Z,99944.14
2019-03-04T23:14:53.525Z,99930.08
2019-03-04T23:17:23.521Z,99942.81
2019-03-04T23:19:53.666Z,99940.91
2019-03-04T23:22:23.451Z,99955.49
2019-03-04T23:24:53.223Z,99945.91
2019-03-04T23:27:22.975Z,99945.92
2019-03-04T23:29:52.709Z,99946.45
2019-03-04T23:32:22.554Z,99947.03
2019-03-04T23:34:52.196Z,99950.06
2019-03-04T23:37:21.979Z,99948.28
2019-03-04T23:39:51.693Z,99960.75
2019-03-04T23:42:21.460Z,99962.56
2019-03-04T23:44:51.296Z,99969.50
2019-03-04T23:47:21.049Z,99977.02
2019-03-04T23:50:10.649Z,99960.22
2019-03-04T23:52:40.447Z,99961.74
2019-03-04T23:55:10.825Z,99954.09
2019-03-04T23:57:40.503Z,99959.27
